sensor_id;sensor_type;location;lat;lon;timestamp;P1;durP1;ratioP1;P2;durP2;ratioP2
28311;SDS011;15572;48.810;9.148;2023-05-07T00:02:38;17.73;;;4.70;;
28311;SDS011;15572;48.810;9.148;2023-05-07T00:07:35;7.33;;;5.57;;
28311;SDS011;15572;48.810;9.148;2023-05-07T00:12:32;7.93;;;5.20;;
28311;SDS011;15572;48.810;9.148;2023-05-07T00:17:30;6.63;;;4.90;;
28311;SDS011;15572;48.810;9.148;2023-05-07T00:22:26;9.13;;;5.80;;
28311;SDS011;15572;48.810;9.148;2023-05-07T00:27:25;6.93;;;4.97;;
28311;SDS011;15572;48.810;9.148;2023-05-07T00:32:21;9.77;;;6.40;;
28311;SDS011;15572;48.810;9.148;2023-05-07T00:37:19;9.27;;;6.67;;
28311;SDS011;15572;48.810;9.148;2023-05-07T00:42:16;9.60;;;6.20;;
28311;SDS011;15572;48.810;9.148;2023-05-07T00:47:13;8.13;;;4.80;;
28311;SDS011;15572;48.810;9.148;2023-05-07T00:52:10;6.93;;;4.83;;
28311;SDS011;15572;48.810;9.148;2023-05-07T00:57:10;5.87;;;3.63;;
28311;SDS011;15572;48.810;9.148;2023-05-07T01:02:07;7.07;;;4.37;;
28311;SDS011;15572;48.810;9.148;2023-05-07T01:07:03;7.73;;;5.73;;
28311;SDS011;15572;48.810;9.148;2023-05-07T01:12:01;6.93;;;5.33;;
28311;SDS011;15572;48.810;9.148;2023-05-07T01:16:59;7.23;;;4.83;;
28311;SDS011;15572;48.810;9.148;2023-05-07T01:21:56;5.03;;;4.10;;
28311;SDS011;15572;48.810;9.148;2023-05-07T01:26:59;4.80;;;4.27;;
28311;SDS011;15572;48.810;9.148;2023-05-07T01:31:57;7.57;;;4.17;;
28311;SDS011;15572;48.810;9.148;2023-05-07T01:36:55;6.63;;;4.60;;
28311;SDS011;15572;48.810;9.148;2023-05-07T01:41:53;5.40;;;4.40;;
28311;SDS011;15572;48.810;9.148;2023-05-07T01:46:52;6.10;;;4.53;;
28311;SDS011;15572;48.810;9.148;2023-05-07T01:51:50;7.63;;;4.53;;
28311;SDS011;15572;48.810;9.148;2023-05-07T01:56:47;5.00;;;4.13;;
28311;SDS011;15572;48.810;9.148;2023-05-07T02:01:44;7.50;;;4.57;;
28311;SDS011;15572;48.810;9.148;2023-05-07T02:06:41;6.77;;;4.60;;
28311;SDS011;15572;48.810;9.148;2023-05-07T02:11:38;5.37;;;4.37;;
28311;SDS011;15572;48.810;9.148;2023-05-07T02:16:34;7.77;;;4.80;;
28311;SDS011;15572;48.810;9.148;2023-05-07T02:21:31;5.97;;;4.70;;
28311;SDS011;15572;48.810;9.148;2023-05-07T02:26:28;6.60;;;4.80;;
28311;SDS011;15572;48.810;9.148;2023-05-07T02:31:25;5.87;;;4.90;;
28311;SDS011;15572;48.810;9.148;2023-05-07T02:36:21;6.90;;;5.07;;
28311;SDS011;15572;48.810;9.148;2023-05-07T02:41:18;7.47;;;4.73;;
28311;SDS011;15572;48.810;9.148;2023-05-07T02:46:16;8.30;;;4.70;;
28311;SDS011;15572;48.810;9.148;2023-05-07T02:51:12;7.07;;;4.77;;
28311;SDS011;15572;48.810;9.148;2023-05-07T02:56:10;6.60;;;4.83;;
28311;SDS011;15572;48.810;9.148;2023-05-07T03:01:06;6.27;;;4.70;;
28311;SDS011;15572;48.810;9.148;2023-05-07T03:06:04;9.53;;;4.90;;
28311;SDS011;15572;48.810;9.148;2023-05-07T03:11:01;6.63;;;4.70;;
28311;SDS011;15572;48.810;9.148;2023-05-07T03:15:58;6.57;;;4.87;;
28311;SDS011;15572;48.810;9.148;2023-05-07T03:20:54;7.40;;;5.00;;
28311;SDS011;15572;48.810;9.148;2023-05-07T03:25:52;7.40;;;4.93;;
28311;SDS011;15572;48.810;9.148;2023-05-07T03:30:48;6.93;;;5.10;;
28311;SDS011;15572;48.810;9.148;2023-05-07T03:35:45;6.63;;;5.17;;
28311;SDS011;15572;48.810;9.148;2023-05-07T03:40:42;7.67;;;4.87;;
28311;SDS011;15572;48.810;9.148;2023-05-07T03:45:39;6.03;;;4.80;;
28311;SDS011;15572;48.810;9.148;2023-05-07T03:50:36;9.07;;;4.90;;
28311;SDS011;15572;48.810;9.148;2023-05-07T03:55:33;7.60;;;5.07;;
28311;SDS011;15572;48.810;9.148;2023-05-07T04:00:30;6.63;;;4.67;;
28311;SDS011;15572;48.810;9.148;2023-05-07T04:05:29;6.53;;;4.90;;
28311;SDS011;15572;48.810;9.148;2023-05-07T04:10:26;9.80;;;4.70;;
28311;SDS011;15572;48.810;9.148;2023-05-07T04:15:23;4.73;;;4.20;;
28311;SDS011;15572;48.810;9.148;2023-05-07T04:20:19;5.33;;;4.70;;
28311;SDS011;15572;48.810;9.148;2023-05-07T04:25:17;7.37;;;4.97;;
28311;SDS011;15572;48.810;9.148;2023-05-07T04:30:14;8.33;;;5.03;;
28311;SDS011;15572;48.810;9.148;2023-05-07T04:35:10;5.80;;;5.00;;
28311;SDS011;15572;48.810;9.148;2023-05-07T04:40:07;7.20;;;4.60;;
28311;SDS011;15572;48.810;9.148;2023-05-07T04:45:06;5.27;;;4.70;;
28311;SDS011;15572;48.810;9.148;2023-05-07T04:50:05;6.20;;;4.87;;
28311;SDS011;15572;48.810;9.148;2023-05-07T04:55:03;6.93;;;5.40;;
28311;SDS011;15572;48.810;9.148;2023-05-07T05:00:00;7.13;;;5.33;;
28311;SDS011;15572;48.810;9.148;2023-05-07T05:04:58;8.53;;;5.90;;
28311;SDS011;15572;48.810;9.148;2023-05-07T05:09:54;7.30;;;5.53;;
28311;SDS011;15572;48.810;9.148;2023-05-07T05:14:52;9.93;;;5.10;;
28311;SDS011;15572;48.810;9.148;2023-05-07T05:19:48;6.03;;;4.83;;
28311;SDS011;15572;48.810;9.148;2023-05-07T05:24:47;8.43;;;5.00;;
28311;SDS011;15572;48.810;9.148;2023-05-07T05:29:43;8.60;;;4.83;;
28311;SDS011;15572;48.810;9.148;2023-05-07T05:34:40;6.50;;;5.13;;
28311;SDS011;15572;48.810;9.148;2023-05-07T05:39:36;7.03;;;5.50;;
28311;SDS011;15572;48.810;9.148;2023-05-07T05:44:34;5.87;;;5.10;;
28311;SDS011;15572;48.810;9.148;2023-05-07T05:49:30;7.87;;;5.90;;
28311;SDS011;15572;48.810;9.148;2023-05-07T05:54:27;7.77;;;5.73;;
28311;SDS011;15572;48.810;9.148;2023-05-07T05:59:23;7.57;;;5.97;;
28311;SDS011;15572;48.810;9.148;2023-05-07T06:04:22;8.40;;;6.07;;
28311;SDS011;15572;48.810;9.148;2023-05-07T06:09:18;8.57;;;6.43;;
28311;SDS011;15572;48.810;9.148;2023-05-07T06:14:15;8.97;;;6.70;;
28311;SDS011;15572;48.810;9.148;2023-05-07T06:19:11;9.13;;;6.47;;
28311;SDS011;15572;48.810;9.148;2023-05-07T06:24:09;9.17;;;6.13;;
28311;SDS011;15572;48.810;9.148;2023-05-07T06:29:06;8.03;;;6.50;;
28311;SDS011;15572;48.810;9.148;2023-05-07T06:34:02;10.30;;;7.10;;
28311;SDS011;15572;48.810;9.148;2023-05-07T06:38:59;9.17;;;6.37;;
28311;SDS011;15572;48.810;9.148;2023-05-07T06:43:57;9.63;;;6.40;;
28311;SDS011;15572;48.810;9.148;2023-05-07T06:48:54;8.67;;;6.27;;
28311;SDS011;15572;48.810;9.148;2023-05-07T06:53:51;8.30;;;6.37;;
28311;SDS011;15572;48.810;9.148;2023-05-07T06:58:48;7.73;;;5.60;;
28311;SDS011;15572;48.810;9.148;2023-05-07T07:03:46;7.27;;;5.90;;
28311;SDS011;15572;48.810;9.148;2023-05-07T07:08:42;8.67;;;5.77;;
28311;SDS011;15572;48.810;9.148;2023-05-07T07:13:39;7.57;;;5.90;;
28311;SDS011;15572;48.810;9.148;2023-05-07T07:18:36;6.77;;;5.27;;
28311;SDS011;15572;48.810;9.148;2023-05-07T07:23:34;5.97;;;4.73;;
28311;SDS011;15572;48.810;9.148;2023-05-07T07:28:30;6.37;;;5.13;;
28311;SDS011;15572;48.810;9.148;2023-05-07T07:33:27;5.27;;;4.00;;
28311;SDS011;15572;48.810;9.148;2023-05-07T07:38:23;7.00;;;4.17;;
28311;SDS011;15572;48.810;9.148;2023-05-07T07:43:21;6.17;;;4.90;;
28311;SDS011;15572;48.810;9.148;2023-05-07T07:48:17;7.17;;;4.80;;
28311;SDS011;15572;48.810;9.148;2023-05-07T07:53:14;6.73;;;4.33;;
28311;SDS011;15572;48.810;9.148;2023-05-07T07:58:10;5.00;;;3.87;;
28311;SDS011;15572;48.810;9.148;2023-05-07T08:03:10;7.33;;;4.53;;
28311;SDS011;15572;48.810;9.148;2023-05-07T08:08:06;7.43;;;4.53;;
28311;SDS011;15572;48.810;9.148;2023-05-07T08:13:04;5.60;;;4.37;;
28311;SDS011;15572;48.810;9.148;2023-05-07T08:18:01;6.07;;;4.87;;
28311;SDS011;15572;48.810;9.148;2023-05-07T08:22:59;7.47;;;4.75;;
28311;SDS011;15572;48.810;9.148;2023-05-07T08:27:56;5.65;;;4.50;;
28311;SDS011;15572;48.810;9.148;2023-05-07T08:32:52;5.45;;;4.22;;
28311;SDS011;15572;48.810;9.148;2023-05-07T08:37:48;5.85;;;4.47;;
28311;SDS011;15572;48.810;9.148;2023-05-07T08:42:48;4.88;;;3.90;;
28311;SDS011;15572;48.810;9.148;2023-05-07T08:47:47;5.57;;;3.60;;
28311;SDS011;15572;48.810;9.148;2023-05-07T08:52:46;5.85;;;3.42;;
28311;SDS011;15572;48.810;9.148;2023-05-07T08:57:43;6.03;;;3.70;;
28311;SDS011;15572;48.810;9.148;2023-05-07T09:02:41;5.60;;;3.60;;
28311;SDS011;15572;48.810;9.148;2023-05-07T09:07:38;4.75;;;3.67;;
28311;SDS011;15572;48.810;9.148;2023-05-07T09:12:34;6.82;;;3.30;;
28311;SDS011;15572;48.810;9.148;2023-05-07T09:17:31;3.95;;;3.05;;
28311;SDS011;15572;48.810;9.148;2023-05-07T09:22:29;3.53;;;2.95;;
28311;SDS011;15572;48.810;9.148;2023-05-07T09:27:27;4.97;;;3.30;;
28311;SDS011;15572;48.810;9.148;2023-05-07T09:32:25;4.88;;;3.00;;
28311;SDS011;15572;48.810;9.148;2023-05-07T09:37:22;3.42;;;2.78;;
28311;SDS011;15572;48.810;9.148;2023-05-07T09:42:24;3.38;;;2.65;;
28311;SDS011;15572;48.810;9.148;2023-05-07T09:47:23;4.30;;;2.92;;
28311;SDS011;15572;48.810;9.148;2023-05-07T09:52:20;3.78;;;2.65;;
28311;SDS011;15572;48.810;9.148;2023-05-07T09:57:17;5.32;;;2.92;;
28311;SDS011;15572;48.810;9.148;2023-05-07T10:02:17;5.05;;;2.70;;
28311;SDS011;15572;48.810;9.148;2023-05-07T10:07:15;4.15;;;2.50;;
28311;SDS011;15572;48.810;9.148;2023-05-07T10:12:12;4.40;;;2.85;;
28311;SDS011;15572;48.810;9.148;2023-05-07T10:17:09;3.20;;;2.60;;
28311;SDS011;15572;48.810;9.148;2023-05-07T10:22:09;2.58;;;2.28;;
28311;SDS011;15572;48.810;9.148;2023-05-07T10:27:07;3.90;;;2.40;;
28311;SDS011;15572;48.810;9.148;2023-05-07T10:37:33;3.00;;;2.45;;
28311;SDS011;15572;48.810;9.148;2023-05-07T10:42:30;2.90;;;2.50;;
28311;SDS011;15572;48.810;9.148;2023-05-07T10:47:27;3.15;;;2.67;;
28311;SDS011;15572;48.810;9.148;2023-05-07T10:52:23;4.38;;;3.00;;
28311;SDS011;15572;48.810;9.148;2023-05-07T10:57:33;3.70;;;2.63;;
28311;SDS011;15572;48.810;9.148;2023-05-07T11:08:02;3.33;;;2.20;;
28311;SDS011;15572;48.810;9.148;2023-05-07T11:13:01;3.70;;;2.40;;
28311;SDS011;15572;48.810;9.148;2023-05-07T11:17:58;3.05;;;2.50;;
28311;SDS011;15572;48.810;9.148;2023-05-07T11:22:55;3.28;;;2.30;;
28311;SDS011;15572;48.810;9.148;2023-05-07T11:27:52;3.33;;;2.50;;
28311;SDS011;15572;48.810;9.148;2023-05-07T11:32:50;2.97;;;2.67;;
28311;SDS011;15572;48.810;9.148;2023-05-07T11:37:47;3.78;;;2.75;;
28311;SDS011;15572;48.810;9.148;2023-05-07T11:42:44;6.85;;;2.88;;
28311;SDS011;15572;48.810;9.148;2023-05-07T11:47:41;3.97;;;2.67;;
28311;SDS011;15572;48.810;9.148;2023-05-07T11:52:39;2.88;;;2.58;;
28311;SDS011;15572;48.810;9.148;2023-05-07T11:57:35;3.70;;;2.83;;
28311;SDS011;15572;48.810;9.148;2023-05-07T12:02:32;3.03;;;2.60;;
28311;SDS011;15572;48.810;9.148;2023-05-07T12:07:29;3.33;;;2.50;;
28311;SDS011;15572;48.810;9.148;2023-05-07T12:12:28;3.80;;;2.65;;
28311;SDS011;15572;48.810;9.148;2023-05-07T12:17:24;2.92;;;2.53;;
28311;SDS011;15572;48.810;9.148;2023-05-07T12:22:21;4.85;;;2.90;;
28311;SDS011;15572;48.810;9.148;2023-05-07T12:27:18;3.28;;;2.72;;
28311;SDS011;15572;48.810;9.148;2023-05-07T12:32:16;4.00;;;2.72;;
28311;SDS011;15572;48.810;9.148;2023-05-07T12:37:14;3.20;;;2.30;;
28311;SDS011;15572;48.810;9.148;2023-05-07T12:42:10;5.00;;;2.38;;
28311;SDS011;15572;48.810;9.148;2023-05-07T12:47:11;3.88;;;2.25;;
28311;SDS011;15572;48.810;9.148;2023-05-07T12:52:09;5.13;;;2.30;;
28311;SDS011;15572;48.810;9.148;2023-05-07T12:57:07;4.32;;;2.13;;
28311;SDS011;15572;48.810;9.148;2023-05-07T13:02:05;6.43;;;2.30;;
28311;SDS011;15572;48.810;9.148;2023-05-07T13:07:02;3.85;;;2.33;;
28311;SDS011;15572;48.810;9.148;2023-05-07T13:12:00;5.32;;;2.40;;
28311;SDS011;15572;48.810;9.148;2023-05-07T13:16:57;2.97;;;2.10;;
28311;SDS011;15572;48.810;9.148;2023-05-07T13:21:54;8.90;;;2.58;;
28311;SDS011;15572;48.810;9.148;2023-05-07T13:26:50;4.57;;;2.20;;
28311;SDS011;15572;48.810;9.148;2023-05-07T13:31:48;6.18;;;2.30;;
28311;SDS011;15572;48.810;9.148;2023-05-07T13:36:44;7.53;;;2.27;;
28311;SDS011;15572;48.810;9.148;2023-05-07T13:41:41;6.70;;;2.20;;
28311;SDS011;15572;48.810;9.148;2023-05-07T13:46:37;3.03;;;2.13;;
28311;SDS011;15572;48.810;9.148;2023-05-07T13:51:35;2.37;;;1.77;;
28311;SDS011;15572;48.810;9.148;2023-05-07T13:56:32;2.07;;;1.60;;
28311;SDS011;15572;48.810;9.148;2023-05-07T14:01:28;3.73;;;1.70;;
28311;SDS011;15572;48.810;9.148;2023-05-07T14:06:25;2.70;;;1.93;;
28311;SDS011;15572;48.810;9.148;2023-05-07T14:11:23;1.93;;;1.40;;
28311;SDS011;15572;48.810;9.148;2023-05-07T14:16:19;1.70;;;1.30;;
28311;SDS011;15572;48.810;9.148;2023-05-07T14:21:16;3.00;;;1.77;;
28311;SDS011;15572;48.810;9.148;2023-05-07T14:26:12;2.73;;;1.80;;
28311;SDS011;15572;48.810;9.148;2023-05-07T14:31:10;3.63;;;2.10;;
28311;SDS011;15572;48.810;9.148;2023-05-07T14:36:06;7.83;;;2.57;;
28311;SDS011;15572;48.810;9.148;2023-05-07T14:41:03;3.57;;;2.40;;
28311;SDS011;15572;48.810;9.148;2023-05-07T14:45:59;5.20;;;2.30;;
28311;SDS011;15572;48.810;9.148;2023-05-07T14:50:57;3.07;;;2.37;;
28311;SDS011;15572;48.810;9.148;2023-05-07T14:55:54;3.20;;;2.00;;
28311;SDS011;15572;48.810;9.148;2023-05-07T15:00:50;2.87;;;1.83;;
28311;SDS011;15572;48.810;9.148;2023-05-07T15:05:47;4.80;;;2.60;;
28311;SDS011;15572;48.810;9.148;2023-05-07T15:10:47;2.80;;;2.60;;
28311;SDS011;15572;48.810;9.148;2023-05-07T15:15:44;3.53;;;2.20;;
28311;SDS011;15572;48.810;9.148;2023-05-07T15:20:40;3.20;;;2.23;;
28311;SDS011;15572;48.810;9.148;2023-05-07T15:25:37;4.70;;;2.40;;
28311;SDS011;15572;48.810;9.148;2023-05-07T15:30:35;4.30;;;2.40;;
28311;SDS011;15572;48.810;9.148;2023-05-07T15:35:32;4.20;;;2.70;;
28311;SDS011;15572;48.810;9.148;2023-05-07T15:40:28;4.30;;;2.80;;
28311;SDS011;15572;48.810;9.148;2023-05-07T15:45:25;6.80;;;3.00;;
28311;SDS011;15572;48.810;9.148;2023-05-07T15:50:23;3.53;;;2.70;;
28311;SDS011;15572;48.810;9.148;2023-05-07T15:55:19;3.90;;;3.10;;
28311;SDS011;15572;48.810;9.148;2023-05-07T16:00:16;6.63;;;3.20;;
28311;SDS011;15572;48.810;9.148;2023-05-07T16:05:13;4.70;;;3.17;;
28311;SDS011;15572;48.810;9.148;2023-05-07T16:10:11;7.10;;;3.30;;
28311;SDS011;15572;48.810;9.148;2023-05-07T16:15:08;5.27;;;3.20;;
28311;SDS011;15572;48.810;9.148;2023-05-07T16:20:05;5.27;;;3.40;;
28311;SDS011;15572;48.810;9.148;2023-05-07T16:25:03;4.37;;;3.43;;
28311;SDS011;15572;48.810;9.148;2023-05-07T16:30:01;8.60;;;4.20;;
28311;SDS011;15572;48.810;9.148;2023-05-07T16:34:58;4.30;;;3.90;;
28311;SDS011;15572;48.810;9.148;2023-05-07T16:39:54;4.97;;;3.60;;
28311;SDS011;15572;48.810;9.148;2023-05-07T16:44:52;4.40;;;3.70;;
28311;SDS011;15572;48.810;9.148;2023-05-07T16:49:50;6.70;;;4.17;;
28311;SDS011;15572;48.810;9.148;2023-05-07T16:54:46;7.83;;;4.47;;
28311;SDS011;15572;48.810;9.148;2023-05-07T16:59:42;5.93;;;4.03;;
28311;SDS011;15572;48.810;9.148;2023-05-07T17:04:39;4.30;;;3.60;;
28311;SDS011;15572;48.810;9.148;2023-05-07T17:09:37;5.50;;;4.13;;
28311;SDS011;15572;48.810;9.148;2023-05-07T17:14:33;6.23;;;4.20;;
28311;SDS011;15572;48.810;9.148;2023-05-07T17:19:30;6.40;;;4.17;;
28311;SDS011;15572;48.810;9.148;2023-05-07T17:24:26;6.68;;;4.50;;
28311;SDS011;15572;48.810;9.148;2023-05-07T17:29:24;6.88;;;3.75;;
28311;SDS011;15572;48.810;9.148;2023-05-07T17:34:21;4.87;;;3.73;;
28311;SDS011;15572;48.810;9.148;2023-05-07T17:39:17;6.50;;;3.70;;
28311;SDS011;15572;48.810;9.148;2023-05-07T17:44:14;5.07;;;4.27;;
28311;SDS011;15572;48.810;9.148;2023-05-07T17:49:12;4.13;;;3.73;;
28311;SDS011;15572;48.810;9.148;2023-05-07T17:54:10;7.90;;;4.13;;
28311;SDS011;15572;48.810;9.148;2023-05-07T17:59:06;5.67;;;4.27;;
28311;SDS011;15572;48.810;9.148;2023-05-07T18:04:03;5.60;;;4.40;;
28311;SDS011;15572;48.810;9.148;2023-05-07T18:09:01;5.80;;;4.50;;
28311;SDS011;15572;48.810;9.148;2023-05-07T18:13:57;5.13;;;4.13;;
28311;SDS011;15572;48.810;9.148;2023-05-07T18:18:54;5.43;;;4.07;;
28311;SDS011;15572;48.810;9.148;2023-05-07T18:23:51;5.83;;;3.80;;
28311;SDS011;15572;48.810;9.148;2023-05-07T18:28:49;4.53;;;3.70;;
28311;SDS011;15572;48.810;9.148;2023-05-07T18:33:45;7.07;;;4.03;;
28311;SDS011;15572;48.810;9.148;2023-05-07T18:38:42;6.77;;;4.23;;
28311;SDS011;15572;48.810;9.148;2023-05-07T18:43:38;4.97;;;4.13;;
28311;SDS011;15572;48.810;9.148;2023-05-07T18:48:36;5.80;;;4.60;;
28311;SDS011;15572;48.810;9.148;2023-05-07T18:53:33;7.70;;;4.80;;
28311;SDS011;15572;48.810;9.148;2023-05-07T18:58:29;7.73;;;4.73;;
28311;SDS011;15572;48.810;9.148;2023-05-07T19:03:26;7.73;;;5.30;;
28311;SDS011;15572;48.810;9.148;2023-05-07T19:08:24;7.40;;;5.37;;
28311;SDS011;15572;48.810;9.148;2023-05-07T19:13:20;6.87;;;5.53;;
28311;SDS011;15572;48.810;9.148;2023-05-07T19:18:17;6.70;;;5.20;;
28311;SDS011;15572;48.810;9.148;2023-05-07T19:23:13;19.00;;;11.33;;
28311;SDS011;15572;48.810;9.148;2023-05-07T19:28:11;94.63;;;43.67;;
28311;SDS011;15572;48.810;9.148;2023-05-07T19:33:08;60.93;;;32.83;;
28311;SDS011;15572;48.810;9.148;2023-05-07T19:38:04;37.60;;;19.03;;
28311;SDS011;15572;48.810;9.148;2023-05-07T19:43:02;9.27;;;6.50;;
28311;SDS011;15572;48.810;9.148;2023-05-07T19:47:59;7.77;;;5.67;;
28311;SDS011;15572;48.810;9.148;2023-05-07T19:52:56;9.67;;;5.03;;
28311;SDS011;15572;48.810;9.148;2023-05-07T19:57:52;5.90;;;5.30;;
28311;SDS011;15572;48.810;9.148;2023-05-07T20:02:49;7.63;;;4.97;;
28311;SDS011;15572;48.810;9.148;2023-05-07T20:07:47;8.97;;;5.93;;
28311;SDS011;15572;48.810;9.148;2023-05-07T20:12:43;8.23;;;5.77;;
28311;SDS011;15572;48.810;9.148;2023-05-07T20:17:40;7.50;;;6.70;;
28311;SDS011;15572;48.810;9.148;2023-05-07T20:22:36;9.30;;;6.93;;
28311;SDS011;15572;48.810;9.148;2023-05-07T20:27:34;8.83;;;6.67;;
28311;SDS011;15572;48.810;9.148;2023-05-07T20:32:33;10.03;;;7.43;;
28311;SDS011;15572;48.810;9.148;2023-05-07T20:37:30;9.40;;;7.47;;
28311;SDS011;15572;48.810;9.148;2023-05-07T20:42:27;7.93;;;7.00;;
28311;SDS011;15572;48.810;9.148;2023-05-07T20:47:25;7.47;;;6.60;;
28311;SDS011;15572;48.810;9.148;2023-05-07T20:52:22;9.13;;;6.90;;
28311;SDS011;15572;48.810;9.148;2023-05-07T20:57:18;8.27;;;7.17;;
28311;SDS011;15572;48.810;9.148;2023-05-07T21:02:14;9.43;;;7.63;;
28311;SDS011;15572;48.810;9.148;2023-05-07T21:07:12;7.90;;;7.07;;
28311;SDS011;15572;48.810;9.148;2023-05-07T21:12:09;8.40;;;7.40;;
28311;SDS011;15572;48.810;9.148;2023-05-07T21:17:05;9.77;;;7.97;;
28311;SDS011;15572;48.810;9.148;2023-05-07T21:22:02;9.50;;;7.67;;
28311;SDS011;15572;48.810;9.148;2023-05-07T21:27:00;9.23;;;8.20;;
28311;SDS011;15572;48.810;9.148;2023-05-07T21:31:56;9.60;;;8.60;;
28311;SDS011;15572;48.810;9.148;2023-05-07T21:36:53;9.03;;;8.10;;
28311;SDS011;15572;48.810;9.148;2023-05-07T21:41:49;12.67;;;8.77;;
28311;SDS011;15572;48.810;9.148;2023-05-07T21:46:47;10.40;;;8.90;;
28311;SDS011;15572;48.810;9.148;2023-05-07T21:51:43;12.00;;;9.13;;
28311;SDS011;15572;48.810;9.148;2023-05-07T21:56:40;10.60;;;9.50;;
28311;SDS011;15572;48.810;9.148;2023-05-07T22:01:36;13.63;;;10.10;;
28311;SDS011;15572;48.810;9.148;2023-05-07T22:06:34;12.30;;;10.60;;
28311;SDS011;15572;48.810;9.148;2023-05-07T22:11:30;13.47;;;10.47;;
28311;SDS011;15572;48.810;9.148;2023-05-07T22:16:27;12.90;;;9.33;;
28311;SDS011;15572;48.810;9.148;2023-05-07T22:21:23;13.43;;;10.30;;
28311;SDS011;15572;48.810;9.148;2023-05-07T22:26:21;12.10;;;10.47;;
28311;SDS011;15572;48.810;9.148;2023-05-07T22:31:18;14.33;;;10.57;;
28311;SDS011;15572;48.810;9.148;2023-05-07T22:36:14;12.30;;;10.33;;
28311;SDS011;15572;48.810;9.148;2023-05-07T22:41:11;13.37;;;10.83;;
28311;SDS011;15572;48.810;9.148;2023-05-07T22:46:08;13.73;;;11.23;;
28311;SDS011;15572;48.810;9.148;2023-05-07T22:51:05;15.30;;;11.63;;
28311;SDS011;15572;48.810;9.148;2023-05-07T22:56:03;15.10;;;11.77;;
28311;SDS011;15572;48.810;9.148;2023-05-07T23:01:00;17.57;;;11.83;;
28311;SDS011;15572;48.810;9.148;2023-05-07T23:05:58;14.77;;;11.50;;
28311;SDS011;15572;48.810;9.148;2023-05-07T23:10:55;15.00;;;11.83;;
28311;SDS011;15572;48.810;9.148;2023-05-07T23:15:51;16.37;;;12.00;;
28311;SDS011;15572;48.810;9.148;2023-05-07T23:20:48;15.00;;;12.30;;
28311;SDS011;15572;48.810;9.148;2023-05-07T23:25:45;16.93;;;13.60;;
28311;SDS011;15572;48.810;9.148;2023-05-07T23:30:42;17.57;;;13.10;;
28311;SDS011;15572;48.810;9.148;2023-05-07T23:35:38;17.13;;;13.37;;
28311;SDS011;15572;48.810;9.148;2023-05-07T23:40:35;24.27;;;18.13;;
28311;SDS011;15572;48.810;9.148;2023-05-07T23:45:32;23.00;;;18.67;;
28311;SDS011;15572;48.810;9.148;2023-05-07T23:50:29;26.03;;;21.23;;
28311;SDS011;15572;48.810;9.148;2023-05-07T23:55:25;24.53;;;19.73;;
